Time;durP1;ratioP1;P1;durP2;ratioP2;P2;SDS_P1;SDS_P2;PMS_P1;PMS_P2;Temp;Humidity;BMP_temperature;BMP_pressure;BME280_temperature;BME280_humidity;BME280_pressure;Samples;Min_cycle;Max_cycle;Signal;HPM_P1;HPM_P2
2022/08/08 00:01:57;;;;;;;11.50;7.00;;;;;;;;;;5051811;28;20045;-64
2022/08/08 00:04:23;;;;;;;11.40;7.07;;;;;;;;;;5052124;28;20476;-64
2022/08/08 00:06:49;;;;;;;11.27;7.97;;;;;;;;;;5051956;28;20128;-64
2022/08/08 00:09:22;;;;;;;13.47;9.03;;;;;;;;;;5052011;28;20053;-64
2022/08/08 00:11:52;;;;;;;12.57;9.90;;;;;;;;;;5051201;28;20053;-64
2022/08/08 00:14:40;;;;;;;15.00;9.30;;;;;;;;;;5050689;28;20469;-64
2022/08/08 00:17:12;;;;;;;18.30;9.87;;;;;;;;;;5043818;28;20060;-64
2022/08/08 00:19:45;;;;;;;17.77;9.57;;;;;;;;;;5051592;28;20056;-64
2022/08/08 00:22:20;;;;;;;16.25;10.00;;;;;;;;;;5051637;28;20114;-64
2022/08/08 00:24:49;;;;;;;20.80;10.43;;;;;;;;;;5048091;28;20044;-64
2022/08/08 00:27:17;;;;;;;16.20;9.97;;;;;;;;;;5051279;28;20049;-64
2022/08/08 00:29:46;;;;;;;9.07;6.90;;;;;;;;;;5051621;28;20053;-64
2022/08/08 00:32:35;;;;;;;10.67;7.37;;;;;;;;;;5051047;28;20040;-64
2022/08/08 00:35:10;;;;;;;12.40;7.47;;;;;;;;;;5050762;28;20043;-64
2022/08/08 00:37:45;;;;;;;20.10;10.40;;;;;;;;;;5051008;28;20507;-64
2022/08/08 00:40:15;;;;;;;14.83;7.77;;;;;;;;;;5051432;28;20048;-64
2022/08/08 00:42:59;;;;;;;12.37;7.93;;;;;;;;;;5051041;28;20052;-64
2022/08/08 00:45:57;;;;;;;12.07;8.40;;;;;;;;;;5051296;28;20041;-63
2022/08/08 00:48:42;;;;;;;12.93;9.43;;;;;;;;;;5042333;28;20160;-64
2022/08/08 00:51:08;;;;;;;17.13;10.00;;;;;;;;;;5050661;28;20099;-63
2022/08/08 00:53:52;;;;;;;18.97;9.87;;;;;;;;;;5050649;28;20041;-63
2022/08/08 00:56:37;;;;;;;13.90;8.87;;;;;;;;;;5050601;28;20049;-64
2022/08/08 00:59:24;;;;;;;10.83;7.63;;;;;;;;;;5050854;28;20060;-64
2022/08/08 01:02:09;;;;;;;16.07;9.13;;;;;;;;;;5050966;28;20519;-64
2022/08/08 01:04:44;;;;;;;12.47;5.60;;;;;;;;;;5049923;28;20095;-64
2022/08/08 01:07:10;;;;;;;89.47;11.23;;;;;;;;;;5051149;28;20051;-64
2022/08/08 01:09:39;;;;;;;8.63;6.40;;;;;;;;;;5050627;28;20053;-64
2022/08/08 01:12:05;;;;;;;12.20;8.23;;;;;;;;;;5050240;28;20159;-64
2022/08/08 01:14:56;;;;;;;12.40;8.03;;;;;;;;;;5051026;28;20041;-64
2022/08/08 01:17:35;;;;;;;12.60;8.50;;;;;;;;;;5050541;28;20041;-64
2022/08/08 01:20:30;;;;;;;9.17;6.93;;;;;;;;;;5050712;28;20530;-64
2022/08/08 01:23:27;;;;;;;10.10;7.30;;;;;;;;;;5048422;28;20049;-64
2022/08/08 01:26:02;;;;;;;13.77;8.03;;;;;;;;;;5051000;28;20392;-64
2022/08/08 01:28:40;;;;;;;17.33;9.60;;;;;;;;;;5049970;28;20044;-64
2022/08/08 01:31:18;;;;;;;15.70;10.33;;;;;;;;;;5050206;28;20443;-64
2022/08/08 01:33:57;;;;;;;15.70;9.00;;;;;;;;;;5050025;28;20045;-64
2022/08/08 01:36:25;;;;;;;12.23;9.23;;;;;;;;;;5050084;28;20106;-64
2022/08/08 01:38:51;;;;;;;13.90;8.07;;;;;;;;;;5049866;28;20045;-64
2022/08/08 01:41:30;;;;;;;13.27;8.87;;;;;;;;;;5050398;28;20045;-64
2022/08/08 01:44:15;;;;;;;11.37;7.33;;;;;;;;;;5049964;28;20056;-64
2022/08/08 01:46:46;;;;;;;10.13;7.17;;;;;;;;;;5049879;28;20049;-64
2022/08/08 01:49:17;;;;;;;13.33;9.13;;;;;;;;;;5046855;28;20456;-64
2022/08/08 01:51:55;;;;;;;13.67;7.93;;;;;;;;;;5049522;28;20041;-64
2022/08/08 01:54:36;;;;;;;15.10;9.37;;;;;;;;;;5050605;28;20131;-64
2022/08/08 01:57:08;;;;;;;14.23;8.80;;;;;;;;;;5049631;28;20052;-64
2022/08/08 01:59:41;;;;;;;10.97;6.87;;;;;;;;;;5049605;28;20041;-64
2022/08/08 02:02:31;;;;;;;9.63;7.10;;;;;;;;;;5049380;28;20107;-64
2022/08/08 02:05:24;;;;;;;11.00;7.90;;;;;;;;;;5049649;28;20060;-64
2022/08/08 02:07:52;;;;;;;13.63;8.40;;;;;;;;;;5048427;28;20041;-64
2022/08/08 02:10:24;;;;;;;13.57;10.27;;;;;;;;;;5049648;28;20109;-64
2022/08/08 02:12:59;;;;;;;15.70;9.50;;;;;;;;;;5048818;28;20049;-64
2022/08/08 02:15:44;;;;;;;12.63;8.37;;;;;;;;;;5048867;28;20047;-64
2022/08/08 02:18:23;;;;;;;13.23;8.00;;;;;;;;;;5048041;28;20044;-64
2022/08/08 02:23:45;;;;;;;14.73;9.23;;;;;;;;;;5048792;28;20080;-64
2022/08/08 02:26:16;;;;;;;10.97;6.67;;;;;;;;;;5048147;28;20694;-64
2022/08/08 02:28:45;;;;;;;10.23;7.93;;;;;;;;;;5048968;28;20574;-64
2022/08/08 02:31:24;;;;;;;10.93;7.57;;;;;;;;;;5047615;28;20056;-64
2022/08/08 02:33:56;;;;;;;15.07;8.83;;;;;;;;;;5048412;28;20048;-64
2022/08/08 02:36:28;;;;;;;18.57;11.10;;;;;;;;;;5048868;28;20053;-64
2022/08/08 02:39:00;;;;;;;16.07;9.57;;;;;;;;;;5049107;28;20549;-64
2022/08/08 02:41:45;;;;;;;12.77;8.63;;;;;;;;;;5041526;28;20060;-64
2022/08/08 02:44:24;;;;;;;13.10;8.83;;;;;;;;;;5048741;28;20045;-64
2022/08/08 02:46:59;;;;;;;13.37;9.67;;;;;;;;;;5048942;28;20056;-64
2022/08/08 02:49:38;;;;;;;12.53;7.30;;;;;;;;;;5044765;28;20052;-64
2022/08/08 02:52:09;;;;;;;8.83;6.80;;;;;;;;;;5048894;28;20076;-64
2022/08/08 02:54:45;;;;;;;12.60;7.73;;;;;;;;;;5048797;28;20461;-64
2022/08/08 02:57:24;;;;;;;13.13;8.33;;;;;;;;;;5048248;28;20045;-64
2022/08/08 03:00:12;;;;;;;71.40;13.17;;;;;;;;;;5048675;28;20041;-64
2022/08/08 03:02:44;;;;;;;43.90;11.63;;;;;;;;;;5041222;28;20041;-64
2022/08/08 03:05:10;;;;;;;17.13;10.43;;;;;;;;;;5048429;28;20052;-63
2022/08/08 03:07:55;;;;;;;24.10;12.97;;;;;;;;;;5048474;28;20078;-64
2022/08/08 03:10:34;;;;;;;18.73;12.97;;;;;;;;;;5047015;28;20495;-64
2022/08/08 03:13:23;;;;;;;20.50;11.37;;;;;;;;;;5047896;28;20045;-64
2022/08/08 03:15:55;;;;;;;18.37;10.33;;;;;;;;;;5047928;28;20063;-64
2022/08/08 03:18:25;;;;;;;17.27;9.20;;;;;;;;;;5048847;28;20045;-64
2022/08/08 03:20:52;;;;;;;16.83;9.97;;;;;;;;;;5046811;28;20045;-64
2022/08/08 03:23:18;;;;;;;19.10;10.03;;;;;;;;;;5048064;28;20399;-64
2022/08/08 03:25:45;;;;;;;18.17;10.47;;;;;;;;;;5047417;28;20044;-64
2022/08/08 03:28:15;;;;;;;10.43;8.33;;;;;;;;;;5047772;28;20040;-64
2022/08/08 03:30:47;;;;;;;11.10;9.07;;;;;;;;;;5040584;28;20106;-64
2022/08/08 03:33:16;;;;;;;15.93;9.00;;;;;;;;;;5047976;28;20049;-64
2022/08/08 03:35:42;;;;;;;13.33;8.50;;;;;;;;;;5048443;28;20071;-64
2022/08/08 03:38:09;;;;;;;14.43;9.20;;;;;;;;;;5047427;28;20049;-64
2022/08/08 03:40:35;;;;;;;13.20;8.33;;;;;;;;;;5047460;28;20076;-64
2022/08/08 03:43:01;;;;;;;16.80;9.73;;;;;;;;;;5047871;28;20037;-64
2022/08/08 03:45:29;;;;;;;15.03;9.20;;;;;;;;;;5047829;28;20045;-64
2022/08/08 03:48:02;;;;;;;15.53;9.97;;;;;;;;;;5047051;28;20044;-64
2022/08/08 03:50:29;;;;;;;19.80;11.57;;;;;;;;;;5047692;28;20053;-64
2022/08/08 03:52:55;;;;;;;21.53;14.80;;;;;;;;;;5047789;28;20494;-64
2022/08/08 03:55:22;;;;;;;21.47;12.90;;;;;;;;;;5047870;28;20464;-64
2022/08/08 03:57:50;;;;;;;17.17;11.17;;;;;;;;;;5047680;28;20056;-64
2022/08/08 04:00:17;;;;;;;16.20;10.83;;;;;;;;;;5044267;28;20045;-64
2022/08/08 04:02:43;;;;;;;20.70;11.40;;;;;;;;;;5046249;28;20731;-64
2022/08/08 04:05:10;;;;;;;10.47;6.57;;;;;;;;;;5047989;28;20040;-64
2022/08/08 04:07:40;;;;;;;11.70;7.27;;;;;;;;;;5047504;28;20049;-64
2022/08/08 04:10:09;;;;;;;12.73;8.00;;;;;;;;;;5047234;28;20053;-64
2022/08/08 04:12:36;;;;;;;12.43;7.90;;;;;;;;;;5047560;28;20060;-64
2022/08/08 04:15:02;;;;;;;17.30;9.60;;;;;;;;;;5047619;28;20411;-64
2022/08/08 04:17:28;;;;;;;11.40;6.90;;;;;;;;;;5047628;28;20041;-64
2022/08/08 04:19:55;;;;;;;15.30;9.83;;;;;;;;;;5046648;28;20127;-64
2022/08/08 04:22:21;;;;;;;17.30;11.57;;;;;;;;;;5047549;28;20056;-64
2022/08/08 04:24:48;;;;;;;20.03;9.93;;;;;;;;;;5047402;28;20526;-64
2022/08/08 04:27:14;;;;;;;14.60;9.43;;;;;;;;;;5047031;28;20063;-64
2022/08/08 04:29:40;;;;;;;18.23;9.23;;;;;;;;;;5046781;28;20132;-64
2022/08/08 04:32:07;;;;;;;15.13;9.17;;;;;;;;;;5047164;28;20628;-64
2022/08/08 04:34:33;;;;;;;16.67;9.47;;;;;;;;;;5046859;28;20041;-64
2022/08/08 04:36:59;;;;;;;16.40;9.33;;;;;;;;;;5048221;28;20574;-64
2022/08/08 04:39:25;;;;;;;9.70;6.77;;;;;;;;;;5050675;28;20064;-64
2022/08/08 04:41:51;;;;;;;10.10;7.63;;;;;;;;;;5049370;28;20139;-64
2022/08/08 04:44:17;;;;;;;14.50;8.97;;;;;;;;;;5050999;28;20457;-64
2022/08/08 04:46:43;;;;;;;17.53;10.40;;;;;;;;;;5050680;28;20047;-64
2022/08/08 04:49:10;;;;;;;16.70;10.03;;;;;;;;;;5050716;28;20058;-65
2022/08/08 04:51:36;;;;;;;24.43;11.80;;;;;;;;;;5050695;28;20110;-65
2022/08/08 04:54:02;;;;;;;15.87;9.97;;;;;;;;;;5050997;28;20041;-64
2022/08/08 04:56:28;;;;;;;17.10;10.17;;;;;;;;;;5050986;28;20052;-64
2022/08/08 04:58:54;;;;;;;17.60;10.10;;;;;;;;;;5050296;28;20049;-64
2022/08/08 05:01:20;;;;;;;15.40;9.70;;;;;;;;;;5050231;28;20056;-64
2022/08/08 05:03:46;;;;;;;13.90;8.07;;;;;;;;;;5050433;28;20067;-64
2022/08/08 05:06:13;;;;;;;13.67;8.57;;;;;;;;;;5050575;28;20040;-64
2022/08/08 05:08:39;;;;;;;20.20;12.40;;;;;;;;;;5050324;28;20400;-64
2022/08/08 05:11:06;;;;;;;16.67;11.83;;;;;;;;;;5050322;28;20049;-64
2022/08/08 05:13:32;;;;;;;15.53;9.97;;;;;;;;;;5050368;28;20052;-64
2022/08/08 05:15:58;;;;;;;12.80;8.60;;;;;;;;;;5050174;28;20110;-64
2022/08/08 05:18:24;;;;;;;16.83;11.80;;;;;;;;;;5050419;28;20049;-64
2022/08/08 05:20:51;;;;;;;17.13;10.60;;;;;;;;;;5048877;28;20041;-64
2022/08/08 05:23:18;;;;;;;20.03;11.37;;;;;;;;;;5031907;28;20059;-64
2022/08/08 05:25:44;;;;;;;13.90;9.77;;;;;;;;;;5050546;28;20408;-64
2022/08/08 05:28:10;;;;;;;17.17;11.43;;;;;;;;;;5049013;28;20041;-65
2022/08/08 05:30:37;;;;;;;14.43;10.03;;;;;;;;;;5049414;28;20099;-64
2022/08/08 05:33:03;;;;;;;24.23;13.10;;;;;;;;;;5049882;28;20052;-64
2022/08/08 05:35:30;;;;;;;22.03;12.37;;;;;;;;;;5050318;28;20052;-64
2022/08/08 05:38:01;;;;;;;22.43;12.97;;;;;;;;;;5048185;28;20053;-64
2022/08/08 05:40:28;;;;;;;12.13;9.20;;;;;;;;;;5050055;28;20049;-64
2022/08/08 05:42:57;;;;;;;19.90;11.77;;;;;;;;;;5049536;28;20048;-64
2022/08/08 05:45:23;;;;;;;17.43;9.27;;;;;;;;;;5050212;28;20398;-65
2022/08/08 05:47:50;;;;;;;21.83;13.33;;;;;;;;;;5049401;28;20414;-64
2022/08/08 05:50:17;;;;;;;20.87;13.70;;;;;;;;;;5048800;28;20491;-64
2022/08/08 05:52:43;;;;;;;20.97;12.63;;;;;;;;;;5049754;28;20049;-64
2022/08/08 05:55:10;;;;;;;14.40;9.07;;;;;;;;;;5049158;28;20055;-65
2022/08/08 05:57:37;;;;;;;14.87;9.63;;;;;;;;;;5049796;28;20080;-65
2022/08/08 06:00:09;;;;;;;22.17;11.97;;;;;;;;;;5049479;28;20660;-65
2022/08/08 06:05:21;;;;;;;16.47;12.93;;;;;;;;;;5049298;28;20049;-64
2022/08/08 06:07:48;;;;;;;19.63;10.60;;;;;;;;;;5047787;28;20087;-65
2022/08/08 06:10:14;;;;;;;15.83;9.00;;;;;;;;;;5049456;28;20057;-65
2022/08/08 06:12:41;;;;;;;17.03;10.20;;;;;;;;;;5049039;28;20051;-64
2022/08/08 06:15:08;;;;;;;16.40;9.90;;;;;;;;;;5049137;28;20045;-65
2022/08/08 06:17:35;;;;;;;15.20;9.73;;;;;;;;;;5048986;28;20077;-65
2022/08/08 06:20:03;;;;;;;16.67;10.17;;;;;;;;;;5048600;28;20044;-65
2022/08/08 06:22:32;;;;;;;14.10;9.57;;;;;;;;;;5041355;28;20048;-65
2022/08/08 06:24:58;;;;;;;19.63;10.20;;;;;;;;;;5048117;28;20060;-65
2022/08/08 06:27:33;;;;;;;17.63;11.30;;;;;;;;;;5048855;28;20045;-65
2022/08/08 06:30:03;;;;;;;13.43;8.70;;;;;;;;;;5048791;28;20122;-65
2022/08/08 06:32:30;;;;;;;14.30;9.30;;;;;;;;;;5048597;28;20072;-65
2022/08/08 06:34:59;;;;;;;18.07;9.13;;;;;;;;;;5048742;28;20505;-65
2022/08/08 06:37:27;;;;;;;16.97;9.23;;;;;;;;;;5048719;28;20041;-65
2022/08/08 06:39:56;;;;;;;14.10;9.70;;;;;;;;;;5048872;28;20120;-65
2022/08/08 06:42:23;;;;;;;14.17;10.97;;;;;;;;;;5048321;28;20098;-65
2022/08/08 06:44:51;;;;;;;11.47;8.07;;;;;;;;;;5045116;28;20543;-65
2022/08/08 06:47:17;;;;;;;12.80;8.37;;;;;;;;;;5049136;28;20159;-65
2022/08/08 06:49:46;;;;;;;15.47;8.33;;;;;;;;;;5048442;28;20041;-65
2022/08/08 06:52:12;;;;;;;11.23;7.10;;;;;;;;;;5048891;28;20415;-65
2022/08/08 06:54:40;;;;;;;14.77;7.37;;;;;;;;;;5048084;28;20098;-65
2022/08/08 06:57:06;;;;;;;15.83;6.67;;;;;;;;;;5048125;28;20106;-65
2022/08/08 06:59:33;;;;;;;12.23;7.73;;;;;;;;;;5048496;28;20514;-65
2022/08/08 07:02:04;;;;;;;11.13;6.10;;;;;;;;;;5048133;28;20098;-65
2022/08/08 07:04:36;;;;;;;11.87;6.10;;;;;;;;;;5048779;28;20829;-65
2022/08/08 07:07:04;;;;;;;16.27;5.95;;;;;;;;;;5046665;28;20049;-62
2022/08/08 07:09:36;;;;;;;14.37;5.90;;;;;;;;;;5048275;28;20060;-64
2022/08/08 07:12:09;;;;;;;9.88;4.28;;;;;;;;;;5048080;28;20048;-66
2022/08/08 07:14:52;;;;;;;11.68;5.45;;;;;;;;;;5048347;28;20047;-64
2022/08/08 07:17:21;;;;;;;8.47;3.80;;;;;;;;;;5048423;28;20053;-65
2022/08/08 07:19:54;;;;;;;11.23;3.90;;;;;;;;;;5047687;28;20064;-64
2022/08/08 07:22:27;;;;;;;8.65;3.83;;;;;;;;;;5048135;28;20094;-65
2022/08/08 07:25:03;;;;;;;14.85;4.38;;;;;;;;;;5046906;28;20127;-64
2022/08/08 07:27:45;;;;;;;15.00;3.97;;;;;;;;;;5047952;28;20140;-64
2022/08/08 07:30:11;;;;;;;7.60;3.23;;;;;;;;;;5044068;28;20095;-64
2022/08/08 07:32:38;;;;;;;11.63;3.63;;;;;;;;;;5042719;28;20041;-64
2022/08/08 07:35:05;;;;;;;7.20;2.90;;;;;;;;;;5047666;28;20045;-64
2022/08/08 07:37:31;;;;;;;10.37;3.90;;;;;;;;;;5047204;28;20442;-64
2022/08/08 07:39:57;;;;;;;9.03;3.63;;;;;;;;;;5046533;28;20472;-64
2022/08/08 07:42:24;;;;;;;7.60;3.13;;;;;;;;;;5047532;28;20514;-65
2022/08/08 07:44:50;;;;;;;6.73;2.67;;;;;;;;;;5047191;28;20519;-65
2022/08/08 07:47:16;;;;;;;6.50;2.90;;;;;;;;;;5047723;28;20824;-64
2022/08/08 07:49:42;;;;;;;12.27;3.30;;;;;;;;;;5046675;28;20566;-64
2022/08/08 07:52:10;;;;;;;11.00;3.03;;;;;;;;;;5047601;28;20045;-64
2022/08/08 07:54:55;;;;;;;8.10;3.07;;;;;;;;;;5047630;28;20053;-64
2022/08/08 07:57:31;;;;;;;9.17;2.63;;;;;;;;;;5047244;28;20094;-64
2022/08/08 08:00:14;;;;;;;7.53;2.03;;;;;;;;;;5047626;28;20570;-64
2022/08/08 08:02:43;;;;;;;9.18;2.30;;;;;;;;;;5047597;28;20037;-64
2022/08/08 08:05:29;;;;;;;13.40;2.27;;;;;;;;;;5047053;28;20084;-64
2022/08/08 08:08:06;;;;;;;3.57;1.60;;;;;;;;;;5046672;28;20060;-65
2022/08/08 08:10:33;;;;;;;4.00;1.50;;;;;;;;;;5046314;28;20049;-64
2022/08/08 08:13:19;;;;;;;8.57;1.77;;;;;;;;;;5049303;28;20122;-64
2022/08/08 08:15:47;;;;;;;6.87;1.87;;;;;;;;;;5051618;28;20712;-64
2022/08/08 08:18:15;;;;;;;5.07;1.37;;;;;;;;;;5051103;28;20475;-64
2022/08/08 08:20:41;;;;;;;5.10;1.40;;;;;;;;;;5051145;28;20175;-63
2022/08/08 08:23:07;;;;;;;6.83;1.70;;;;;;;;;;5050697;28;20053;-63
2022/08/08 08:25:33;;;;;;;3.37;1.20;;;;;;;;;;5051366;28;20044;-63
2022/08/08 08:27:59;;;;;;;4.90;1.00;;;;;;;;;;5051396;28;20522;-63
2022/08/08 08:30:26;;;;;;;8.43;1.60;;;;;;;;;;5049805;28;20083;-63
2022/08/08 08:32:52;;;;;;;6.77;1.30;;;;;;;;;;5050883;28;20056;-63
2022/08/08 08:35:18;;;;;;;4.17;1.00;;;;;;;;;;5050850;28;20045;-63
2022/08/08 08:37:44;;;;;;;3.17;1.23;;;;;;;;;;5051348;28;20037;-63
2022/08/08 08:40:13;;;;;;;4.43;1.50;;;;;;;;;;5033337;28;20059;-63
2022/08/08 08:42:40;;;;;;;4.57;1.30;;;;;;;;;;5050760;28;20045;-63
2022/08/08 08:45:06;;;;;;;6.77;1.60;;;;;;;;;;5050826;28;20061;-63
2022/08/08 08:47:32;;;;;;;3.90;1.20;;;;;;;;;;5050909;28;20127;-63
2022/08/08 08:49:58;;;;;;;5.17;1.17;;;;;;;;;;5051099;28;20041;-63
2022/08/08 08:52:25;;;;;;;5.37;1.40;;;;;;;;;;5050870;28;20214;-63
2022/08/08 08:54:51;;;;;;;5.27;1.10;;;;;;;;;;5050674;28;20045;-64
2022/08/08 08:57:17;;;;;;;5.20;1.40;;;;;;;;;;5050242;28;20444;-64
2022/08/08 08:59:47;;;;;;;6.87;1.33;;;;;;;;;;5050789;28;20545;-64
2022/08/08 09:02:20;;;;;;;5.27;1.20;;;;;;;;;;5051058;28;20491;-64
2022/08/08 09:04:47;;;;;;;3.50;0.85;;;;;;;;;;5050623;28;20051;-64
2022/08/08 09:07:15;;;;;;;4.80;1.07;;;;;;;;;;5050167;28;20701;-64
2022/08/08 09:09:43;;;;;;;4.17;1.60;;;;;;;;;;5050654;28;20135;-64
2022/08/08 09:12:10;;;;;;;5.33;1.37;;;;;;;;;;5050491;28;20177;-64
2022/08/08 09:14:36;;;;;;;4.00;0.97;;;;;;;;;;5050147;28;20037;-64
2022/08/08 09:17:02;;;;;;;2.00;0.70;;;;;;;;;;5050405;28;20037;-64
2022/08/08 09:19:28;;;;;;;3.43;0.70;;;;;;;;;;5050043;28;20579;-64
2022/08/08 09:21:55;;;;;;;5.47;1.20;;;;;;;;;;5050508;28;20124;-64
2022/08/08 09:24:23;;;;;;;2.65;0.85;;;;;;;;;;5048460;28;20098;-64
2022/08/08 09:26:57;;;;;;;2.25;0.80;;;;;;;;;;5050088;28;20072;-64
2022/08/08 09:29:24;;;;;;;4.38;1.50;;;;;;;;;;5050090;28;20339;-65
2022/08/08 09:31:53;;;;;;;2.15;0.70;;;;;;;;;;5050040;28;20064;-64
2022/08/08 09:34:20;;;;;;;2.58;0.85;;;;;;;;;;5050458;28;20419;-64
2022/08/08 09:36:47;;;;;;;2.70;0.60;;;;;;;;;;5050596;28;20045;-65
2022/08/08 09:39:16;;;;;;;3.22;1.20;;;;;;;;;;5049620;28;20044;-64
2022/08/08 09:41:42;;;;;;;2.40;0.68;;;;;;;;;;5050264;28;20033;-64
2022/08/08 09:44:15;;;;;;;6.43;1.48;;;;;;;;;;5050091;28;20740;-65
2022/08/08 09:46:42;;;;;;;2.88;0.77;;;;;;;;;;5041288;28;20094;-65
2022/08/08 09:49:09;;;;;;;3.78;1.55;;;;;;;;;;5049466;28;20519;-65
2022/08/08 09:51:39;;;;;;;3.58;1.00;;;;;;;;;;5048001;28;20041;-64
2022/08/08 09:54:05;;;;;;;4.45;0.70;;;;;;;;;;5047489;28;20086;-65
2022/08/08 09:56:34;;;;;;;3.15;0.77;;;;;;;;;;5047728;28;20674;-65
2022/08/08 09:59:04;;;;;;;3.08;0.80;;;;;;;;;;5047012;28;20306;-64
2022/08/08 10:01:33;;;;;;;4.32;0.77;;;;;;;;;;5047420;28;21159;-64
2022/08/08 10:04:00;;;;;;;3.22;1.10;;;;;;;;;;5047781;28;20040;-64
2022/08/08 10:06:26;;;;;;;2.58;0.80;;;;;;;;;;5047361;28;20094;-64
2022/08/08 10:08:53;;;;;;;2.83;0.80;;;;;;;;;;5048436;28;20052;-64
2022/08/08 10:11:20;;;;;;;3.97;0.90;;;;;;;;;;5048771;28;20053;-64
2022/08/08 10:13:53;;;;;;;2.67;0.57;;;;;;;;;;5049109;28;20044;-65
2022/08/08 10:16:20;;;;;;;3.90;0.90;;;;;;;;;;5048868;28;20041;-64
2022/08/08 10:18:46;;;;;;;3.53;1.38;;;;;;;;;;5048352;28;20041;-64
2022/08/08 10:21:13;;;;;;;1.50;0.75;;;;;;;;;;5048619;28;20037;-65
2022/08/08 10:23:43;;;;;;;2.97;1.15;;;;;;;;;;5048135;28;20047;-65
2022/08/08 10:26:14;;;;;;;5.32;0.90;;;;;;;;;;5048683;28;20056;-65
2022/08/08 10:28:51;;;;;;;4.72;1.02;;;;;;;;;;5048175;28;20124;-65
2022/08/08 10:34:04;;;;;;;2.78;0.98;;;;;;;;;;5048143;28;20041;-65
2022/08/08 10:36:30;;;;;;;3.70;0.70;;;;;;;;;;5047753;28;20056;-64
2022/08/08 10:38:57;;;;;;;2.35;0.73;;;;;;;;;;5047618;28;20482;-64
2022/08/08 10:41:27;;;;;;;2.50;0.95;;;;;;;;;;5048311;28;20124;-65
2022/08/08 10:43:53;;;;;;;4.28;0.65;;;;;;;;;;5047970;28;20459;-65
2022/08/08 10:46:25;;;;;;;2.47;0.80;;;;;;;;;;5047723;28;20048;-64
2022/08/08 10:48:55;;;;;;;2.35;0.70;;;;;;;;;;5048190;28;20051;-65
2022/08/08 10:51:22;;;;;;;2.40;0.73;;;;;;;;;;5047929;28;20048;-65
2022/08/08 10:53:49;;;;;;;3.92;1.17;;;;;;;;;;5047738;28;20076;-65
2022/08/08 10:56:16;;;;;;;2.35;0.60;;;;;;;;;;5039931;28;20471;-65
2022/08/08 10:58:42;;;;;;;2.05;0.60;;;;;;;;;;5047585;28;20037;-65
2022/08/08 11:01:09;;;;;;;2.80;0.60;;;;;;;;;;5048205;28;20427;-65
2022/08/08 11:03:44;;;;;;;3.28;0.70;;;;;;;;;;5048060;28;20517;-65
2022/08/08 11:06:11;;;;;;;2.40;0.70;;;;;;;;;;5047211;28;20052;-65
2022/08/08 11:08:39;;;;;;;2.13;0.73;;;;;;;;;;5048093;28;20422;-65
2022/08/08 11:11:09;;;;;;;1.33;0.75;;;;;;;;;;5047552;28;20056;-65
2022/08/08 11:13:43;;;;;;;2.20;0.68;;;;;;;;;;5047875;28;20164;-65
2022/08/08 11:16:20;;;;;;;2.97;0.73;;;;;;;;;;5047232;28;20080;-65
2022/08/08 11:18:48;;;;;;;1.80;0.85;;;;;;;;;;5047627;28;20448;-65
2022/08/08 11:21:14;;;;;;;2.88;0.55;;;;;;;;;;5047417;28;20045;-65
2022/08/08 11:23:41;;;;;;;2.55;0.75;;;;;;;;;;5047391;28;20561;-65
2022/08/08 11:26:10;;;;;;;3.10;0.65;;;;;;;;;;5047280;28;20043;-65
2022/08/08 11:28:36;;;;;;;2.25;0.52;;;;;;;;;;5040246;28;20405;-66
2022/08/08 11:31:03;;;;;;;1.38;0.45;;;;;;;;;;5047336;28;20068;-65
2022/08/08 11:33:30;;;;;;;1.73;0.65;;;;;;;;;;5047214;28;20392;-65
2022/08/08 11:35:57;;;;;;;1.73;0.65;;;;;;;;;;5047468;28;20090;-65
2022/08/08 11:38:24;;;;;;;1.92;0.60;;;;;;;;;;5046625;28;20048;-65
2022/08/08 11:40:51;;;;;;;2.08;0.70;;;;;;;;;;5047866;28;20091;-65
2022/08/08 11:43:18;;;;;;;3.58;0.70;;;;;;;;;;5047016;28;20056;-65
2022/08/08 11:45:47;;;;;;;2.63;0.80;;;;;;;;;;5047289;28;20056;-64
2022/08/08 11:48:14;;;;;;;4.35;1.00;;;;;;;;;;5046514;28;20044;-65
2022/08/08 11:50:40;;;;;;;2.10;0.50;;;;;;;;;;5047029;28;20080;-65
2022/08/08 11:53:06;;;;;;;5.55;0.68;;;;;;;;;;5046623;28;20052;-64
2022/08/08 11:55:36;;;;;;;1.98;0.60;;;;;;;;;;5047607;28;20598;-65
2022/08/08 11:58:02;;;;;;;3.25;0.60;;;;;;;;;;5047290;28;20060;-65
2022/08/08 12:00:29;;;;;;;5.30;1.00;;;;;;;;;;5047341;28;20425;-65
2022/08/08 12:02:56;;;;;;;2.92;0.73;;;;;;;;;;5046669;28;20068;-65
2022/08/08 12:05:32;;;;;;;4.72;0.80;;;;;;;;;;5043503;28;20152;-65
2022/08/08 12:07:58;;;;;;;2.80;0.68;;;;;;;;;;5047167;28;20051;-65
2022/08/08 12:10:27;;;;;;;2.28;0.70;;;;;;;;;;5043118;28;20053;-65
2022/08/08 12:13:04;;;;;;;2.08;0.90;;;;;;;;;;5047047;28;20059;-65
2022/08/08 12:15:31;;;;;;;2.03;0.63;;;;;;;;;;5046494;28;20518;-65
2022/08/08 12:17:58;;;;;;;4.18;0.57;;;;;;;;;;5047088;28;20064;-65
2022/08/08 12:20:24;;;;;;;2.53;0.85;;;;;;;;;;5046993;28;20102;-65
2022/08/08 12:22:53;;;;;;;6.72;1.02;;;;;;;;;;5046476;28;20380;-65
2022/08/08 12:25:20;;;;;;;2.28;0.70;;;;;;;;;;5045447;28;20495;-64
2022/08/08 12:27:47;;;;;;;2.50;0.80;;;;;;;;;;5046018;28;20041;-64
2022/08/08 12:30:13;;;;;;;2.80;0.90;;;;;;;;;;5047001;28;20146;-65
2022/08/08 12:32:43;;;;;;;3.53;0.77;;;;;;;;;;5046774;28;20041;-65
2022/08/08 12:35:18;;;;;;;3.05;0.85;;;;;;;;;;5047312;28;20080;-65
2022/08/08 12:37:44;;;;;;;4.57;0.77;;;;;;;;;;5046207;28;20466;-64
2022/08/08 12:40:15;;;;;;;1.45;0.73;;;;;;;;;;5046507;28;20048;-64
2022/08/08 12:42:45;;;;;;;5.70;0.90;;;;;;;;;;5046677;28;20053;-64
2022/08/08 12:45:11;;;;;;;3.95;0.75;;;;;;;;;;5046742;28;20656;-64
2022/08/08 12:47:37;;;;;;;3.55;0.85;;;;;;;;;;5046964;28;20048;-64
2022/08/08 12:50:03;;;;;;;3.67;0.80;;;;;;;;;;5046358;28;20037;-64
2022/08/08 12:52:40;;;;;;;1.55;0.50;;;;;;;;;;5046540;28;20037;-64
2022/08/08 12:55:09;;;;;;;2.70;0.60;;;;;;;;;;5046303;28;20049;-65
2022/08/08 12:57:36;;;;;;;2.72;0.60;;;;;;;;;;5046772;28;20043;-64
2022/08/08 13:00:03;;;;;;;3.38;0.95;;;;;;;;;;5049408;28;20053;-64
2022/08/08 13:02:30;;;;;;;2.47;0.90;;;;;;;;;;5050307;28;20414;-64
2022/08/08 13:04:57;;;;;;;1.70;0.70;;;;;;;;;;5050460;28;20049;-64
2022/08/08 13:07:34;;;;;;;4.53;0.95;;;;;;;;;;5049743;28;20964;-64
2022/08/08 13:10:02;;;;;;;1.85;0.50;;;;;;;;;;5050126;28;20100;-64
2022/08/08 13:12:34;;;;;;;3.70;0.75;;;;;;;;;;5049922;28;20124;-64
2022/08/08 13:15:07;;;;;;;3.58;0.90;;;;;;;;;;5046916;28;20654;-64
2022/08/08 13:17:34;;;;;;;3.45;0.80;;;;;;;;;;5049976;28;20040;-64
2022/08/08 13:20:01;;;;;;;1.92;0.70;;;;;;;;;;5049813;28;20045;-64
2022/08/08 13:22:27;;;;;;;3.95;0.80;;;;;;;;;;5042209;28;20402;-64
2022/08/08 13:24:53;;;;;;;2.47;0.77;;;;;;;;;;5049707;28;20119;-64
2022/08/08 13:27:20;;;;;;;5.60;0.80;;;;;;;;;;5049661;28;20045;-64
2022/08/08 13:29:51;;;;;;;2.63;0.70;;;;;;;;;;5048540;28;20037;-64
2022/08/08 13:32:18;;;;;;;2.78;0.85;;;;;;;;;;5048777;28;20049;-64
2022/08/08 13:34:48;;;;;;;2.40;0.80;;;;;;;;;;5049752;28;20411;-64
2022/08/08 13:37:15;;;;;;;1.88;0.60;;;;;;;;;;5048981;28;20095;-64
2022/08/08 13:39:41;;;;;;;5.30;1.08;;;;;;;;;;5050003;28;20041;-64
2022/08/08 13:42:07;;;;;;;1.65;0.60;;;;;;;;;;5050094;28;20044;-64
2022/08/08 13:44:33;;;;;;;5.05;0.95;;;;;;;;;;5048733;28;20053;-64
2022/08/08 13:47:01;;;;;;;2.70;0.80;;;;;;;;;;5048013;28;20056;-64
2022/08/08 13:49:29;;;;;;;1.67;0.82;;;;;;;;;;5049495;28;20136;-64
2022/08/08 13:52:16;;;;;;;2.85;0.80;;;;;;;;;;5049095;28;20072;-63
2022/08/08 13:54:44;;;;;;;2.17;0.75;;;;;;;;;;5049563;28;20057;-63
2022/08/08 13:57:12;;;;;;;1.92;0.80;;;;;;;;;;5040941;28;20056;-64
2022/08/08 13:59:43;;;;;;;2.42;0.60;;;;;;;;;;5049082;28;20045;-63
2022/08/08 14:02:27;;;;;;;2.67;0.80;;;;;;;;;;5048880;28;20045;-64
2022/08/08 14:04:53;;;;;;;3.50;0.82;;;;;;;;;;5049133;28;20414;-64
2022/08/08 14:07:21;;;;;;;2.83;0.75;;;;;;;;;;5049320;28;20037;-64
2022/08/08 14:09:47;;;;;;;8.10;0.85;;;;;;;;;;5044968;28;20045;-64
2022/08/08 14:12:14;;;;;;;2.85;0.80;;;;;;;;;;5048534;28;20076;-63
2022/08/08 14:14:44;;;;;;;2.40;0.85;;;;;;;;;;5048983;28;20043;-63
2022/08/08 14:17:12;;;;;;;3.25;0.88;;;;;;;;;;5049045;28;20053;-63
2022/08/08 14:19:39;;;;;;;4.30;0.63;;;;;;;;;;5048553;28;20044;-64
2022/08/08 14:22:14;;;;;;;2.88;0.68;;;;;;;;;;5048172;28;20041;-63
2022/08/08 14:24:40;;;;;;;2.60;0.70;;;;;;;;;;5048468;28;20052;-63
2022/08/08 14:27:24;;;;;;;2.70;0.63;;;;;;;;;;5048229;28;20105;-63
2022/08/08 14:30:10;;;;;;;3.35;0.90;;;;;;;;;;5048641;28;20097;-63
2022/08/08 14:32:38;;;;;;;3.83;0.80;;;;;;;;;;5048128;28;20083;-63
2022/08/08 14:35:05;;;;;;;3.35;0.65;;;;;;;;;;5048503;28;20515;-63
2022/08/08 14:37:38;;;;;;;3.10;0.65;;;;;;;;;;5047931;28;20048;-63
2022/08/08 14:40:04;;;;;;;1.98;0.68;;;;;;;;;;5048539;28;20198;-63
2022/08/08 14:42:33;;;;;;;0.90;0.43;;;;;;;;;;5048547;28;20059;-63
2022/08/08 14:45:01;;;;;;;3.58;0.77;;;;;;;;;;5048241;28;20045;-63
2022/08/08 14:47:27;;;;;;;3.28;0.90;;;;;;;;;;5048739;28;20086;-63
2022/08/08 14:50:06;;;;;;;3.00;1.15;;;;;;;;;;5047393;28;20106;-63
2022/08/08 14:52:39;;;;;;;3.85;1.00;;;;;;;;;;5041145;28;20037;-63
2022/08/08 14:55:06;;;;;;;2.95;0.68;;;;;;;;;;5047809;28;20044;-63
2022/08/08 14:57:32;;;;;;;3.65;0.90;;;;;;;;;;5048428;28;20123;-64
2022/08/08 14:59:58;;;;;;;2.90;0.90;;;;;;;;;;5047773;28;20115;-63
2022/08/08 15:02:24;;;;;;;2.67;0.95;;;;;;;;;;5047181;28;20049;-63